Flight Track Log - Related Links

Times and Time Zones

All times are in EDT time to prevent confusion due to time zone crossing. See the TYR980 flight status page for this flight to view local times or setup timezone preferences in your user account.

Time Position Orientation Groundspeed Altitude Reporting Facility
EDT Latitude Longitude Course Direction KTS MPH feet Rate Location/Type
Wed 05:26:00 AM 47.2729 15.7186 34° Northeast  Level Estimated
Wed 05:27:00 AM 47.3292 15.7748 34° Northeast  Level Estimated
Wed 05:28:00 AM 47.3854 15.8310 34° Northeast  Level Estimated
Wed 05:29:00 AM 47.4416 15.8874 34° Northeast  Level Estimated
Wed 05:30:00 AM 47.4978 15.9439 34° Northeast  Level Estimated
Wed 05:31:00 AM 47.5540 16.0006 34° Northeast  Level Estimated
Wed 05:32:00 AM 47.6101 16.0573 34° Northeast  Level Estimated
Wed 05:33:00 AM 47.6662 16.1142 34° Northeast  Level Estimated
Wed 05:34:00 AM 47.7223 16.1712 34° Northeast  Level Estimated
Wed 05:35:00 AM 47.7784 16.2283 34° Northeast  Level Estimated
Wed 05:36:00 AM 47.8344 16.2856 34° Northeast  Level Estimated
Wed 05:37:00 AM 47.8904 16.3430 34° Northeast  Level Estimated
Wed 05:38:00 AM 47.9464 16.4004 35° Northeast  Level Estimated
Wed 05:39:00 AM 48.0023 16.4581 35° Northeast  Level Estimated
Wed 05:40:00 AM 48.0582 16.5158 35° Northeast  Level Estimated
Wed 05:41:00 AM 48.1103 16.5697 35° Northeast  Level Estimated
Wed 05:42:00 AM 48.1103 16.5697 146° Southeast  Level Estimated
Wed 05:43:00 AM 48.1103 16.5697 146° Southeast  Level Estimated
Wed 05:44:00 AM 48.1103 16.5697 146° Southeast  Level Estimated
Wed 05:45:00 AM 48.1103 16.5697 146° Southeast  Level Estimated
Wed 05:46:00 AM 48.1103 16.5697 146° Southeast  Level Estimated
Wed 05:47:00 AM 48.1103 16.5697 146° Southeast  Level Estimated
Wed 05:48:00 AM 48.1103 16.5697 146° Southeast  Level Estimated
Wed 05:49:00 AM 48.1103 16.5697 146° Southeast  Level Estimated
Wed 05:50:00 AM 48.1103 16.5697 146° Southeast  Level Estimated
Wed 05:51:00 AM 48.1103 16.5697 146° Southeast  Level Estimated
Wed 05:52:00 AM 48.1103 16.5697 146° Southeast  Level Estimated

Login

Don't have an account? Register now (free) for customized features, flight alerts, and more!